createdAt,value
2023-03-19T00:00:28.127Z,15.90
2023-03-19T00:02:55.248Z,20.17
2023-03-19T00:05:22.215Z,21.48
2023-03-19T00:07:48.923Z,21.42
2023-03-19T00:10:15.785Z,22.90
2023-03-19T00:12:42.511Z,29.17
2023-03-19T00:15:14.151Z,29.85
2023-03-19T00:17:41.701Z,30.48
2023-03-19T00:20:09.652Z,30.67
2023-03-19T00:22:36.547Z,33.15
2023-03-19T00:25:03.725Z,33.22
2023-03-19T00:27:30.624Z,36.53
2023-03-19T00:29:57.340Z,33.30
2023-03-19T00:32:24.048Z,29.70
2023-03-19T00:34:51.059Z,32.70
2023-03-19T00:37:18.249Z,27.35
2023-03-19T00:39:45.209Z,31.95
2023-03-19T00:42:12.356Z,36.08
2023-03-19T00:44:39.081Z,32.33
2023-03-19T00:47:07.265Z,31.67
2023-03-19T00:49:34.047Z,35.45
2023-03-19T00:52:01.079Z,35.72
2023-03-19T00:54:27.760Z,32.25
2023-03-19T00:56:54.519Z,35.38
2023-03-19T00:59:21.307Z,33.35
2023-03-19T01:01:48.116Z,36.40
2023-03-19T01:04:15.343Z,37.15
2023-03-19T01:06:42.392Z,36.08
2023-03-19T01:09:09.337Z,35.25
2023-03-19T01:11:36.526Z,35.97
2023-03-19T01:14:03.596Z,31.63
2023-03-19T01:16:30.368Z,34.75
2023-03-19T01:18:57.212Z,32.65
2023-03-19T01:21:24.360Z,37.67
2023-03-19T01:23:51.998Z,34.00
2023-03-19T01:26:19.189Z,33.92
2023-03-19T01:28:46.132Z,34.60
2023-03-19T01:31:13.073Z,38.00
2023-03-19T01:33:39.830Z,34.70
2023-03-19T01:36:08.499Z,36.38
2023-03-19T01:38:35.580Z,43.17
2023-03-19T01:41:02.622Z,41.40
2023-03-19T01:43:31.411Z,41.88
2023-03-19T01:46:12.594Z,44.50
2023-03-19T01:48:51.713Z,43.13
2023-03-19T01:51:23.681Z,46.78
2023-03-19T01:53:53.981Z,42.97
2023-03-19T01:56:25.226Z,39.83
2023-03-19T01:58:56.877Z,56.00
2023-03-19T02:01:24.525Z,46.60
2023-03-19T02:03:53.003Z,48.03
2023-03-19T02:06:23.713Z,49.70
2023-03-19T02:08:52.481Z,46.83
2023-03-19T02:11:20.384Z,52.20
2023-03-19T02:13:47.459Z,47.78
2023-03-19T02:16:15.975Z,49.38
2023-03-19T02:18:43.261Z,47.70
2023-03-19T02:21:13.716Z,46.95
2023-03-19T02:24:07.882Z,45.10
2023-03-19T02:26:36.387Z,48.47
2023-03-19T02:29:04.190Z,47.17
2023-03-19T02:31:31.410Z,49.60
2023-03-19T02:34:05.441Z,50.47
2023-03-19T02:36:42.327Z,52.70
2023-03-19T02:39:21.078Z,51.08
2023-03-19T02:41:49.654Z,49.63
2023-03-19T02:44:19.910Z,49.22
2023-03-19T02:46:46.854Z,48.03
2023-03-19T02:49:13.744Z,44.85
2023-03-19T02:51:41.946Z,50.35
2023-03-19T02:54:09.225Z,47.50
2023-03-19T02:56:35.973Z,51.05
2023-03-19T02:59:03.036Z,50.17
2023-03-19T03:01:30.046Z,47.88
2023-03-19T03:03:56.816Z,45.30
2023-03-19T03:06:23.598Z,48.10
2023-03-19T03:08:50.275Z,49.72
2023-03-19T03:11:17.423Z,47.30
2023-03-19T03:13:44.199Z,49.55
2023-03-19T03:16:11.013Z,50.67
2023-03-19T03:18:37.785Z,56.53
2023-03-19T03:21:04.703Z,53.97
2023-03-19T03:23:31.389Z,47.55
2023-03-19T03:25:58.122Z,54.58
2023-03-19T03:28:24.845Z,48.63
2023-03-19T03:30:51.707Z,53.75
2023-03-19T03:33:18.587Z,50.00
2023-03-19T03:35:45.383Z,49.38
2023-03-19T03:38:12.710Z,51.25
2023-03-19T03:40:39.484Z,49.83
2023-03-19T03:43:06.158Z,50.75
2023-03-19T03:45:33.354Z,50.40
2023-03-19T03:48:00.647Z,53.05
2023-03-19T03:50:27.371Z,50.22
2023-03-19T03:52:54.236Z,50.70
2023-03-19T03:55:21.348Z,53.38
2023-03-19T03:57:48.078Z,45.58
2023-03-19T04:00:15.070Z,52.40
2023-03-19T04:02:42.132Z,49.35
2023-03-19T04:05:09.215Z,51.78
2023-03-19T04:07:37.654Z,50.70
2023-03-19T04:10:05.655Z,44.13
2023-03-19T04:12:32.792Z,51.67
2023-03-19T04:14:59.448Z,50.85
2023-03-19T04:17:26.143Z,50.70
2023-03-19T04:19:53.194Z,50.58
2023-03-19T04:22:19.862Z,49.67
2023-03-19T04:24:46.669Z,50.67
2023-03-19T04:27:13.654Z,48.83
2023-03-19T04:29:40.385Z,49.83
2023-03-19T04:32:07.561Z,47.00
2023-03-19T04:34:34.910Z,51.22
2023-03-19T04:37:02.145Z,48.35
2023-03-19T04:39:29.206Z,52.22
2023-03-19T04:41:56.640Z,52.05
2023-03-19T04:44:23.666Z,48.13
2023-03-19T04:46:50.687Z,47.80
2023-03-19T04:49:17.990Z,47.45
2023-03-19T04:51:44.740Z,52.63
2023-03-19T04:54:11.445Z,47.28
2023-03-19T04:56:38.253Z,50.00
2023-03-19T04:59:05.053Z,49.17
2023-03-19T05:01:31.996Z,48.40
2023-03-19T05:03:59.076Z,49.78
2023-03-19T05:06:27.056Z,47.65
2023-03-19T05:08:53.966Z,45.40
2023-03-19T05:11:21.290Z,50.03
2023-03-19T05:13:48.035Z,54.67
2023-03-19T05:16:14.851Z,50.92
2023-03-19T05:18:42.857Z,49.65
2023-03-19T05:21:12.336Z,44.72
2023-03-19T05:23:39.772Z,48.20
2023-03-19T05:26:07.185Z,47.78
2023-03-19T05:28:34.325Z,46.30
2023-03-19T05:31:01.314Z,50.45
2023-03-19T05:33:28.356Z,46.90
2023-03-19T05:35:57.758Z,47.03
2023-03-19T05:38:25.017Z,46.72
2023-03-19T05:40:52.290Z,47.35
2023-03-19T05:43:19.069Z,48.63
2023-03-19T05:45:51.545Z,45.35
2023-03-19T05:48:18.514Z,47.17
2023-03-19T05:50:45.590Z,48.25
2023-03-19T05:53:12.336Z,47.13
2023-03-19T05:55:39.107Z,48.08
2023-03-19T05:58:07.589Z,45.72
2023-03-19T06:00:35.139Z,49.95
2023-03-19T06:03:02.163Z,50.92
2023-03-19T06:05:28.921Z,48.13
2023-03-19T06:07:55.704Z,46.10
2023-03-19T06:10:22.433Z,42.58
2023-03-19T06:12:49.205Z,44.17
2023-03-19T06:15:16.054Z,49.47
2023-03-19T06:17:44.623Z,51.67
2023-03-19T06:20:13.027Z,49.22
2023-03-19T06:22:40.216Z,43.55
2023-03-19T06:25:07.732Z,45.50
2023-03-19T06:27:34.431Z,44.05
2023-03-19T06:30:01.257Z,48.08
2023-03-19T06:32:27.980Z,45.63
2023-03-19T06:34:56.267Z,51.13
2023-03-19T06:37:23.096Z,46.63
2023-03-19T06:39:51.051Z,48.67
2023-03-19T06:42:17.719Z,42.75
2023-03-19T06:44:44.505Z,47.08
2023-03-19T06:47:11.435Z,45.80
2023-03-19T06:49:39.434Z,45.53
2023-03-19T06:52:06.176Z,47.63
2023-03-19T06:54:32.883Z,47.85
2023-03-19T06:56:59.807Z,44.22
2023-03-19T06:59:26.736Z,47.53
2023-03-19T07:01:53.456Z,48.15
2023-03-19T07:04:20.595Z,50.00
2023-03-19T07:06:47.425Z,40.30
2023-03-19T07:09:14.305Z,44.47
2023-03-19T07:11:41.258Z,41.72
2023-03-19T07:14:08.083Z,45.17
2023-03-19T07:16:34.933Z,39.53
2023-03-19T07:19:01.630Z,42.58
2023-03-19T07:21:29.094Z,42.03
2023-03-19T07:23:55.863Z,44.58
2023-03-19T07:26:22.566Z,40.03
2023-03-19T07:28:49.394Z,40.88
2023-03-19T07:31:17.005Z,43.53
2023-03-19T07:33:43.909Z,43.70
2023-03-19T07:36:11.231Z,38.97
2023-03-19T07:38:38.005Z,38.50
2023-03-19T07:41:05.064Z,38.17
2023-03-19T07:43:32.153Z,41.72
2023-03-19T07:45:59.613Z,40.35
2023-03-19T07:48:26.743Z,37.08
2023-03-19T07:50:54.323Z,42.85
2023-03-19T07:53:21.444Z,35.67
2023-03-19T07:55:48.783Z,39.50
2023-03-19T07:58:16.797Z,44.08
2023-03-19T08:00:44.874Z,44.72
2023-03-19T08:03:11.689Z,43.50
2023-03-19T08:05:38.580Z,42.63
2023-03-19T08:08:05.625Z,40.90
2023-03-19T08:10:34.961Z,40.40
2023-03-19T08:13:05.170Z,41.45
2023-03-19T08:15:31.973Z,42.50
2023-03-19T08:18:03.748Z,44.85
2023-03-19T08:20:31.922Z,41.47
2023-03-19T08:22:58.818Z,40.72
2023-03-19T08:25:26.272Z,40.15
2023-03-19T08:27:53.041Z,41.03
2023-03-19T08:30:19.829Z,39.30
2023-03-19T08:32:46.577Z,39.63
2023-03-19T08:35:14.121Z,38.97
2023-03-19T08:37:40.987Z,39.58
2023-03-19T08:40:09.016Z,38.28
2023-03-19T08:42:35.921Z,40.47
2023-03-19T08:45:02.610Z,35.60
2023-03-19T08:47:29.293Z,38.72
2023-03-19T08:49:56.350Z,37.85
2023-03-19T08:52:23.894Z,38.85
2023-03-19T08:54:50.730Z,39.65
2023-03-19T08:57:17.494Z,36.88
2023-03-19T08:59:44.260Z,38.97
2023-03-19T09:02:12.302Z,38.15
2023-03-19T09:04:45.672Z,36.97
2023-03-19T09:07:13.356Z,39.15
2023-03-19T09:09:41.040Z,39.17
2023-03-19T09:12:09.842Z,39.05
2023-03-19T09:14:37.395Z,37.80
2023-03-19T09:17:04.843Z,40.55
2023-03-19T09:19:31.918Z,33.72
2023-03-19T09:21:59.102Z,36.50
2023-03-19T09:24:26.474Z,34.17
2023-03-19T09:26:53.643Z,31.17
2023-03-19T09:29:20.406Z,37.63
2023-03-19T09:31:47.238Z,33.88
2023-03-19T09:34:14.166Z,35.63
2023-03-19T09:36:40.999Z,34.30
2023-03-19T09:39:08.800Z,33.88
2023-03-19T09:42:07.938Z,29.85
2023-03-19T09:44:41.003Z,30.98
2023-03-19T09:47:27.706Z,28.95
2023-03-19T09:49:58.342Z,35.22
2023-03-19T09:52:45.712Z,32.25
2023-03-19T09:55:24.942Z,29.60
2023-03-19T09:57:55.441Z,33.50
2023-03-19T10:00:32.363Z,34.28
2023-03-19T10:03:12.312Z,30.25
2023-03-19T10:05:51.506Z,29.85
2023-03-19T10:08:24.780Z,27.77
2023-03-19T10:11:10.655Z,30.02
2023-03-19T10:14:09.468Z,25.23
2023-03-19T10:16:40.013Z,25.88
2023-03-19T10:19:07.037Z,28.17
2023-03-19T10:21:48.419Z,29.30
2023-03-19T10:24:24.189Z,30.60
2023-03-19T10:26:59.325Z,28.67
2023-03-19T10:29:26.841Z,31.88
2023-03-19T10:32:05.994Z,27.42
2023-03-19T10:34:38.020Z,27.55
2023-03-19T10:37:14.009Z,28.35
2023-03-19T10:39:43.172Z,24.60
2023-03-19T10:42:18.958Z,24.65
2023-03-19T10:44:50.881Z,28.38
2023-03-19T10:47:20.075Z,23.85
2023-03-19T10:49:46.985Z,24.90
2023-03-19T10:52:24.144Z,32.10
2023-03-19T10:55:02.928Z,26.55
2023-03-19T10:57:31.871Z,25.63
2023-03-19T11:00:06.018Z,26.55
2023-03-19T11:02:33.551Z,33.13
2023-03-19T11:05:31.931Z,25.65
2023-03-19T11:08:08.248Z,23.13
2023-03-19T11:10:35.994Z,22.77
2023-03-19T11:13:24.601Z,22.05
2023-03-19T11:15:53.457Z,21.95
2023-03-19T11:18:23.969Z,22.58
2023-03-19T11:20:58.215Z,23.40
2023-03-19T11:23:27.672Z,24.30
2023-03-19T11:25:55.886Z,24.25
2023-03-19T11:28:26.714Z,22.98
2023-03-19T11:31:20.001Z,26.63
2023-03-19T11:34:09.605Z,22.67
2023-03-19T11:36:45.175Z,23.80
2023-03-19T11:39:34.777Z,19.00
2023-03-19T11:42:16.449Z,20.05
2023-03-19T11:45:04.678Z,25.05
2023-03-19T11:47:36.693Z,22.23
2023-03-19T11:50:18.346Z,18.52
2023-03-19T11:53:06.708Z,25.42
2023-03-19T11:55:57.377Z,20.48
2023-03-19T11:58:53.364Z,23.73
2023-03-19T12:01:52.992Z,20.63
2023-03-19T12:04:34.912Z,19.50
2023-03-19T12:07:06.826Z,23.65
2023-03-19T12:09:47.834Z,20.85
2023-03-19T12:12:46.500Z,18.65
2023-03-19T12:15:31.147Z,17.30
2023-03-19T12:18:35.157Z,18.85
2023-03-19T12:21:17.460Z,23.55
2023-03-19T12:24:25.993Z,18.02
2023-03-19T12:27:06.624Z,16.27
2023-03-19T12:29:36.400Z,22.33
2023-03-19T12:32:15.993Z,17.63
2023-03-19T12:34:52.468Z,15.05
2023-03-19T12:37:30.122Z,15.63
2023-03-19T12:40:15.037Z,17.75
2023-03-19T12:42:42.288Z,19.33
2023-03-19T12:45:26.471Z,16.75
2023-03-19T12:48:00.837Z,22.58
2023-03-19T12:50:29.619Z,18.43
2023-03-19T12:52:58.615Z,20.17
2023-03-19T12:55:42.961Z,17.48
2023-03-19T12:58:24.260Z,20.48
2023-03-19T13:01:24.816Z,17.10
2023-03-19T13:04:09.272Z,22.80
2023-03-19T13:06:41.348Z,18.42
2023-03-19T13:09:24.330Z,17.67
2023-03-19T13:11:57.410Z,23.05
2023-03-19T13:14:34.856Z,19.90
2023-03-19T13:17:15.338Z,18.08
2023-03-19T13:19:52.722Z,17.20
2023-03-19T13:22:22.685Z,16.48
2023-03-19T13:24:52.118Z,21.40
2023-03-19T13:27:27.108Z,19.02
2023-03-19T13:30:12.115Z,21.98
2023-03-19T13:32:51.864Z,17.90
2023-03-19T13:35:30.928Z,21.13
2023-03-19T13:38:07.440Z,15.55
2023-03-19T13:40:38.033Z,24.30
2023-03-19T13:43:04.767Z,18.27
2023-03-19T13:45:36.262Z,15.93
2023-03-19T13:48:36.089Z,19.30
2023-03-19T13:51:19.652Z,15.18
2023-03-19T13:54:12.989Z,14.60
2023-03-19T13:57:00.980Z,12.10
2023-03-19T13:59:31.119Z,14.73
2023-03-19T14:01:59.093Z,14.10
2023-03-19T14:04:31.002Z,11.38
2023-03-19T14:07:17.633Z,11.23
2023-03-19T14:09:48.614Z,11.55
2023-03-19T14:12:18.363Z,16.58
2023-03-19T14:15:11.405Z,14.38
2023-03-19T14:17:46.960Z,12.02
2023-03-19T14:20:15.661Z,12.48
2023-03-19T14:23:01.542Z,14.35
2023-03-19T14:25:51.153Z,15.65
2023-03-19T14:28:23.123Z,17.85
2023-03-19T14:30:50.359Z,14.20
2023-03-19T14:33:52.269Z,13.13
2023-03-19T14:36:23.832Z,14.75
2023-03-19T14:39:03.594Z,18.85
2023-03-19T14:41:35.150Z,12.55
2023-03-19T14:44:15.531Z,10.95
2023-03-19T14:47:04.733Z,13.90
2023-03-19T14:49:52.347Z,14.98
2023-03-19T14:52:58.348Z,18.98
2023-03-19T14:55:34.504Z,19.20
2023-03-19T14:58:01.901Z,16.88
2023-03-19T15:00:28.954Z,13.30
2023-03-19T15:02:56.666Z,15.23
2023-03-19T15:05:36.174Z,20.13
2023-03-19T15:08:06.764Z,15.73
2023-03-19T15:10:57.029Z,11.30
2023-03-19T15:13:46.644Z,13.52
2023-03-19T15:16:39.245Z,15.15
2023-03-19T15:19:13.044Z,13.65
2023-03-19T15:21:40.244Z,15.98
2023-03-19T15:24:16.112Z,8.52
2023-03-19T15:26:43.626Z,12.48
2023-03-19T15:29:12.434Z,11.88
2023-03-19T15:31:57.589Z,13.30
2023-03-19T15:34:29.658Z,12.88
2023-03-19T15:37:15.202Z,11.82
2023-03-19T15:39:46.526Z,11.15
2023-03-19T15:42:16.424Z,12.75
2023-03-19T15:45:02.682Z,14.25
2023-03-19T15:47:33.576Z,12.82
2023-03-19T15:50:12.352Z,11.07
2023-03-19T15:52:42.850Z,11.88
2023-03-19T15:55:12.649Z,13.88
2023-03-19T15:57:41.223Z,10.90
2023-03-19T16:00:12.609Z,15.05
2023-03-19T16:02:42.355Z,13.85
2023-03-19T16:05:30.497Z,13.60
2023-03-19T16:08:15.441Z,9.88
2023-03-19T16:10:45.617Z,14.23
2023-03-19T16:13:30.649Z,16.27
2023-03-19T16:16:08.661Z,14.37
2023-03-19T16:19:01.818Z,13.07
2023-03-19T16:21:38.992Z,15.35
2023-03-19T16:24:08.647Z,16.30
2023-03-19T16:26:44.045Z,13.75
2023-03-19T16:29:27.590Z,17.85
2023-03-19T16:32:15.783Z,15.02
2023-03-19T16:34:50.426Z,17.85
2023-03-19T16:37:33.855Z,15.97
2023-03-19T16:40:22.003Z,17.30
2023-03-19T16:42:54.108Z,13.90
2023-03-19T16:45:31.829Z,19.40
2023-03-19T16:48:00.953Z,19.90
2023-03-19T16:50:36.755Z,20.25
2023-03-19T16:53:11.036Z,22.30
2023-03-19T16:55:38.282Z,23.60
2023-03-19T16:58:16.159Z,23.60
2023-03-19T17:00:44.356Z,22.50
2023-03-19T17:03:14.038Z,21.75
2023-03-19T17:05:41.528Z,24.80
2023-03-19T17:08:09.206Z,29.60
2023-03-19T17:10:38.166Z,26.33
2023-03-19T17:13:05.412Z,24.60
2023-03-19T17:15:37.982Z,32.50
2023-03-19T17:18:19.326Z,26.45
2023-03-19T17:20:51.750Z,24.52
2023-03-19T17:23:18.937Z,22.92
2023-03-19T17:25:45.811Z,27.50
2023-03-19T17:28:12.574Z,24.25
2023-03-19T17:30:39.724Z,28.42
2023-03-19T17:33:06.633Z,28.17
2023-03-19T17:35:34.323Z,23.55
2023-03-19T17:38:01.325Z,23.58
2023-03-19T17:40:28.287Z,27.50
2023-03-19T17:42:56.186Z,29.08
2023-03-19T17:45:29.748Z,24.85
2023-03-19T17:47:58.085Z,26.63
2023-03-19T17:50:28.690Z,23.83
2023-03-19T17:52:55.729Z,25.80
2023-03-19T17:55:25.151Z,26.45
2023-03-19T17:57:52.594Z,26.85
2023-03-19T18:00:21.750Z,30.63
2023-03-19T18:02:51.103Z,23.27
2023-03-19T18:05:23.730Z,25.00
2023-03-19T18:07:53.878Z,27.13
2023-03-19T18:10:23.653Z,35.30
2023-03-19T18:12:50.610Z,29.13
2023-03-19T18:15:17.494Z,33.00
2023-03-19T18:17:50.890Z,26.27
2023-03-19T18:20:20.203Z,28.30
2023-03-19T18:22:47.240Z,30.17
2023-03-19T18:25:19.985Z,34.10
2023-03-19T18:27:47.766Z,34.97
2023-03-19T18:30:17.731Z,28.38
2023-03-19T18:32:47.347Z,28.55
2023-03-19T18:35:28.965Z,31.80
2023-03-19T18:37:56.326Z,31.20
2023-03-19T18:40:25.603Z,30.58
2023-03-19T18:42:52.962Z,33.05
2023-03-19T18:45:20.222Z,41.05
2023-03-19T18:47:48.812Z,33.05
2023-03-19T18:50:29.155Z,34.63
2023-03-19T18:52:56.749Z,34.90
2023-03-19T18:55:28.966Z,33.03
2023-03-19T18:57:59.520Z,33.95
2023-03-19T19:00:40.646Z,35.15
2023-03-19T19:03:07.881Z,33.90
2023-03-19T19:05:34.498Z,30.80
2023-03-19T19:08:03.167Z,31.63
2023-03-19T19:10:33.185Z,36.35
2023-03-19T19:13:00.562Z,33.15
2023-03-19T19:15:34.137Z,36.10
2023-03-19T19:18:03.106Z,34.25
2023-03-19T19:20:29.967Z,30.45
2023-03-19T19:22:56.795Z,32.35
2023-03-19T19:25:28.912Z,36.22
2023-03-19T19:28:05.304Z,39.35
2023-03-19T19:30:32.719Z,34.70
2023-03-19T19:32:59.764Z,35.10
2023-03-19T19:35:28.708Z,34.70
2023-03-19T19:37:55.527Z,40.13
2023-03-19T19:40:28.514Z,35.00
2023-03-19T19:42:55.788Z,33.03
2023-03-19T19:45:31.698Z,35.90
2023-03-19T19:47:59.304Z,32.92
2023-03-19T19:50:27.867Z,31.10
2023-03-19T19:52:56.408Z,33.03
2023-03-19T19:55:25.594Z,34.28
2023-03-19T19:57:54.837Z,39.78
2023-03-19T20:00:28.770Z,34.75
2023-03-19T20:02:57.095Z,31.73
2023-03-19T20:05:30.453Z,35.63
2023-03-19T20:08:00.727Z,32.00
2023-03-19T20:10:30.938Z,34.72
2023-03-19T20:13:04.432Z,35.05
2023-03-19T20:15:36.577Z,35.70
2023-03-19T20:18:05.339Z,33.00
2023-03-19T20:20:33.714Z,32.85
2023-03-19T20:23:04.457Z,32.47
2023-03-19T20:25:33.195Z,32.88
2023-03-19T20:28:01.858Z,30.08
2023-03-19T20:30:35.895Z,35.63
2023-03-19T20:33:06.146Z,38.13
2023-03-19T20:35:36.852Z,34.42
2023-03-19T20:38:05.782Z,37.50
2023-03-19T20:40:46.996Z,39.83
2023-03-19T20:43:28.321Z,37.65
2023-03-19T20:46:06.236Z,37.40
2023-03-19T20:48:34.736Z,36.40
2023-03-19T20:51:02.650Z,43.30
2023-03-19T20:53:30.667Z,35.53
2023-03-19T20:56:00.209Z,38.95
2023-03-19T20:58:31.700Z,39.92
2023-03-19T21:00:59.756Z,39.45
2023-03-19T21:03:28.699Z,37.05
2023-03-19T21:06:14.476Z,35.10
2023-03-19T21:08:48.306Z,40.97
2023-03-19T21:11:18.330Z,39.10
2023-03-19T21:13:46.593Z,37.83
2023-03-19T21:16:25.921Z,39.65
2023-03-19T21:18:54.103Z,41.33
2023-03-19T21:21:35.586Z,37.13
2023-03-19T21:24:20.841Z,40.40
2023-03-19T21:26:50.836Z,39.63
2023-03-19T21:29:25.089Z,40.90
2023-03-19T21:31:54.461Z,36.53
2023-03-19T21:34:21.876Z,40.28
2023-03-19T21:36:49.295Z,36.58
2023-03-19T21:39:17.321Z,42.25
2023-03-19T21:41:46.057Z,40.47
2023-03-19T21:44:16.809Z,37.20
2023-03-19T21:46:46.977Z,37.38
2023-03-19T21:49:14.600Z,40.10
2023-03-19T21:51:44.025Z,37.28
2023-03-19T21:54:11.428Z,35.63
2023-03-19T21:56:40.721Z,33.22
2023-03-19T21:59:18.867Z,36.05
2023-03-19T22:01:46.542Z,36.25
2023-03-19T22:04:13.326Z,36.85
2023-03-19T22:06:40.287Z,38.28
2023-03-19T22:09:07.343Z,33.85
2023-03-19T22:11:37.167Z,36.83
2023-03-19T22:14:15.651Z,36.42
2023-03-19T22:16:42.536Z,40.78
2023-03-19T22:19:14.289Z,41.55
2023-03-19T22:21:41.253Z,39.35
2023-03-19T22:24:08.247Z,42.20
2023-03-19T22:26:42.942Z,34.00
2023-03-19T22:29:23.546Z,40.13
2023-03-19T22:31:51.867Z,43.03
2023-03-19T22:34:21.535Z,40.40
2023-03-19T22:36:48.714Z,43.38
2023-03-19T22:39:15.653Z,37.72
2023-03-19T22:41:45.784Z,39.30
2023-03-19T22:44:29.269Z,38.35
2023-03-19T22:46:58.534Z,40.88
2023-03-19T22:49:26.339Z,37.25
2023-03-19T22:51:53.095Z,41.13
2023-03-19T22:54:19.837Z,41.53
2023-03-19T22:56:46.519Z,39.90
2023-03-19T22:59:14.095Z,43.28
2023-03-19T23:01:46.595Z,41.78
2023-03-19T23:04:29.377Z,40.13
2023-03-19T23:06:57.948Z,42.97
2023-03-19T23:09:30.756Z,41.58
2023-03-19T23:11:59.295Z,45.25
2023-03-19T23:14:30.869Z,38.28
2023-03-19T23:17:03.149Z,44.75
2023-03-19T23:19:38.296Z,38.20
2023-03-19T23:22:07.110Z,45.05
2023-03-19T23:24:35.096Z,38.95
2023-03-19T23:27:02.678Z,42.85
2023-03-19T23:29:34.200Z,48.75
2023-03-19T23:32:01.626Z,46.55
2023-03-19T23:34:28.823Z,41.05
2023-03-19T23:36:56.196Z,43.78
2023-03-19T23:39:23.879Z,43.17
2023-03-19T23:41:55.855Z,42.58
2023-03-19T23:44:22.604Z,43.55
2023-03-19T23:46:50.797Z,43.40
2023-03-19T23:49:26.886Z,45.45
2023-03-19T23:51:53.560Z,40.28
2023-03-19T23:54:31.941Z,42.40
2023-03-19T23:57:01.613Z,41.95
2023-03-19T23:59:32.501Z,45.05
